createdAt,value
2018-02-07T00:00:04.752Z,3.4
2018-02-07T00:15:04.638Z,3.4
2018-02-07T00:30:06.278Z,3.5
2018-02-07T00:45:04.813Z,3.5
2018-02-07T01:00:04.929Z,3.6
2018-02-07T01:15:07.491Z,3.7
2018-02-07T01:30:06.328Z,3.7
2018-02-07T01:45:04.912Z,3.8
2018-02-07T02:00:05.328Z,3.7
2018-02-07T02:15:05.094Z,3.7
2018-02-07T02:30:04.596Z,3.7
2018-02-07T02:45:04.996Z,3.9
2018-02-07T03:00:05.081Z,4.1
2018-02-07T03:15:04.557Z,4.2
2018-02-07T03:30:05.556Z,4.2
2018-02-07T03:45:05.351Z,4.3
2018-02-07T04:00:10.394Z,4.4
2018-02-07T04:15:04.720Z,4.5
2018-02-07T04:30:05.488Z,4.6
2018-02-07T04:45:05.173Z,4.6
2018-02-07T05:00:04.631Z,4.6
2018-02-07T05:15:04.980Z,4.7
2018-02-07T05:30:05.415Z,4.8
2018-02-07T05:45:04.609Z,4.9
2018-02-07T06:00:05.004Z,4.9
2018-02-07T06:15:04.876Z,5
2018-02-07T06:30:04.564Z,5.1
2018-02-07T06:45:05.038Z,5.2
2018-02-07T07:00:04.482Z,5.2
2018-02-07T07:15:04.888Z,5.2
2018-02-07T07:30:04.951Z,5.4
2018-02-07T07:45:04.888Z,5.5
2018-02-07T08:00:04.234Z,5.5
2018-02-07T08:15:05.110Z,5.4
2018-02-07T08:30:04.686Z,5.4
2018-02-07T08:45:04.550Z,5.6
2018-02-07T09:00:04.913Z,5.7
2018-02-07T09:15:04.353Z,5.6
2018-02-07T09:30:08.113Z,5.7
2018-02-07T09:45:05.739Z,5.4
2018-02-07T10:00:05.214Z,5.5
2018-02-07T10:15:05.097Z,5.5
2018-02-07T10:30:04.765Z,5.3
2018-02-07T10:45:05.789Z,5.5
2018-02-07T11:00:04.239Z,5.6
2018-02-07T11:15:05.123Z,5.6
2018-02-07T11:30:04.214Z,5.8
2018-02-07T11:45:04.655Z,5.9
2018-02-07T12:00:06.203Z,6
2018-02-07T12:15:04.671Z,6.1
2018-02-07T12:30:04.389Z,6
2018-02-07T12:45:04.823Z,5.9
2018-02-07T13:00:04.258Z,6
2018-02-07T13:15:04.689Z,5.9
2018-02-07T13:30:05.897Z,6
2018-02-07T13:45:04.381Z,6.1
2018-02-07T14:00:04.386Z,6.3
2018-02-07T14:15:04.787Z,6.4
2018-02-07T14:30:04.475Z,6.4
2018-02-07T14:45:04.929Z,6.4
2018-02-07T15:00:05.402Z,6.5
2018-02-07T15:15:05.518Z,6.4
2018-02-07T15:30:04.326Z,6.5
2018-02-07T15:45:11.484Z,6.3
2018-02-07T16:00:05.417Z,6.1
2018-02-07T16:15:10.426Z,6
2018-02-07T16:30:05.556Z,5.9
2018-02-07T16:45:07.403Z,6
2018-02-07T17:00:05.906Z,5.9
2018-02-07T17:15:04.613Z,5.9
2018-02-07T17:30:05.608Z,5.9
2018-02-07T17:45:05.117Z,5.8
2018-02-07T18:00:05.211Z,5.8
2018-02-07T18:15:05.266Z,5.8
2018-02-07T18:30:05.075Z,5.7
2018-02-07T18:45:05.226Z,5.6
2018-02-07T19:00:05.873Z,5.7
2018-02-07T19:15:04.445Z,5.8
2018-02-07T19:30:05.789Z,5.8
2018-02-07T19:45:20.603Z,5.8
2018-02-07T20:00:05.567Z,5.8
2018-02-07T20:15:06.172Z,5.7
2018-02-07T20:30:04.367Z,5.7
2018-02-07T20:45:05.310Z,5.8
2018-02-07T21:00:04.785Z,5.8
2018-02-07T21:15:04.746Z,5.8
2018-02-07T21:30:07.577Z,5.6
2018-02-07T21:45:04.455Z,5.6
2018-02-07T22:00:04.526Z,5.6
2018-02-07T22:15:05.005Z,5.7
2018-02-07T22:30:06.175Z,5.7
2018-02-07T22:45:05.018Z,5.7
2018-02-07T23:00:04.903Z,5.6
2018-02-07T23:15:04.359Z,5.6
2018-02-07T23:30:05.142Z,5.7
2018-02-07T23:45:04.614Z,5.5
